Terminal Aerodrome Forecast
Issued by NWS

Home | Current Version | Previous Version | Text Only | Print | Product List | Glossary On
Versions: 1 2 3 4 5 6 7 8 9 10 11 12 13 14 15
196
FTUS44 KTSA 100530
TAFRVS
TAF
KRVS 100530Z 1006/1106 02010KT P6SM SCT100
     FM100900 VRB03KT P6SM SCT100
     FM101500 18011KT P6SM SCT250
     FM101800 21015G23KT P6SM SCT250
     FM110000 19004KT P6SM SCT250=

USA.gov is the U.S. government's official web portal to all federal, state and local government web resources and services.